Terminal Aerodrome Forecast
Issued by NWS Denver/Boulder, CO

Home | Current Version | Previous Version | Text Only | Print | Product List | Glossary On
Versions: 1 2 3 4 5 6 7 8 9 10 11 12 13 14 15 16 17 18 19 20 21 22 23 24 25 26 27 28 29 30 31 32 33 34 35 36 37 38 39 40 41 42 43 44 45 46 47 48 49 50
000
FTUS45 KBOU 280343 AAG
TAFDEN
TAF AMD
KDEN 280343Z 2804/2906 15012KT P6SM -TSRA BKN060CB BKN120
     FM280430 17008KT P6SM VCSH SCT060 BKN110
     FM281000 32006KT P6SM FEW040 SCT060 BKN120
      TEMPO 2812/2815 SCT012 BKN025
     FM281600 VRB05KT P6SM SCT035 BKN060
     FM281900 14008KT P6SM VCSH SCT070 BKN110
      TEMPO 2822/2902 VRB20G30KT -TSRA BKN050CB
     FM290400 18011KT P6SM SCT070 OVC120=

USA.gov is the U.S. government's official web portal to all federal, state and local government web resources and services.